Time;durP1;ratioP1;P1;durP2;ratioP2;P2;SDS_P1;SDS_P2;PMS_P1;PMS_P2;Temp;Humidity;BMP_temperature;BMP_pressure;BME280_temperature;BME280_humidity;BME280_pressure;Samples;Min_cycle;Max_cycle;Signal;HPM_P1;HPM_P2
2022/01/24 00:01:26;;;;;;;0.90;0.90;;;1.60;91.10;0.60;99840.00;;;;5114430;28;20246;-74
2022/01/24 00:03:56;;;;;;;0.80;0.80;;;1.60;91.00;0.60;99834.00;;;;5114339;28;20271;-75
2022/01/24 00:06:24;;;;;;;1.23;1.23;;;1.60;91.30;0.70;99832.00;;;;5096638;28;20201;-75
2022/01/24 00:08:53;;;;;;;1.23;1.23;;;1.60;91.70;0.80;99825.00;;;;5096658;28;20213;-75
2022/01/24 00:11:24;;;;;;;1.20;1.20;;;1.70;91.60;0.70;99822.00;;;;5114331;28;20238;-75
2022/01/24 00:17:01;;;;;;;1.30;1.20;;;1.60;90.90;0.60;99779.00;;;;5114151;28;20230;-76
2022/01/24 00:27:45;;;;;;;4.33;2.40;;;1.40;91.30;0.50;99779.00;;;;5066522;28;20235;-75
2022/01/24 00:30:12;;;;;;;1.00;1.00;;;1.40;91.00;0.40;99805.00;;;;5117679;28;20210;-76
2022/01/24 00:32:42;;;;;;;1.97;1.87;;;1.40;90.80;0.50;99807.00;;;;5117578;28;20223;-75
2022/01/24 00:35:11;;;;;;;2.13;1.90;;;1.40;90.70;0.50;99807.00;;;;5117646;28;20572;-75
2022/01/24 00:37:38;;;;;;;1.63;1.53;;;1.40;90.60;0.50;99802.00;;;;5099557;28;20216;-75
2022/01/24 00:40:07;;;;;;;1.93;1.70;;;1.40;90.10;0.60;99802.00;;;;5117613;28;20277;-75
2022/01/24 00:42:44;;;;;;;2.63;1.27;;;1.40;90.40;0.50;99803.00;;;;5117380;28;20219;-75
2022/01/24 00:45:16;;;;;;;1.87;1.77;;;1.40;89.90;0.50;99795.00;;;;5117406;28;20221;-75
2022/01/24 00:48:04;;;;;;;1.00;1.00;;;1.30;90.10;0.40;99799.00;;;;5117527;28;20206;-75
2022/01/24 00:53:37;;;;;;;2.07;1.97;;;1.30;90.00;0.30;99799.00;;;;5117364;28;20202;-77
2022/01/24 00:56:04;;;;;;;1.60;1.50;;;1.30;90.50;0.40;99795.00;;;;5117289;28;20297;-77
2022/01/24 00:58:30;;;;;;;2.10;1.83;;;1.30;90.90;0.30;99791.00;;;;5117324;28;20278;-75
2022/01/24 01:00:57;;;;;;;1.13;1.13;;;1.30;90.60;0.20;99806.00;;;;5116984;28;20301;-75
2022/01/24 01:03:24;;;;;;;1.73;1.63;;;1.20;90.20;0.20;99794.00;;;;5117216;28;20221;-75
2022/01/24 01:06:04;;;;;;;1.23;1.23;;;1.20;90.50;0.20;99799.00;;;;5117008;28;20225;-74
2022/01/24 01:19:37;;;;;;;4.13;2.13;;;1.10;91.10;0.10;99821.00;;;;5117083;28;20206;-76
2022/01/24 01:22:05;;;;;;;0.93;0.93;;;1.10;90.30;0.20;99821.00;;;;5116747;28;20301;-76
2022/01/24 01:24:38;;;;;;;1.40;1.30;;;1.10;90.50;0.00;99817.00;;;;5116719;28;20526;-76
2022/01/24 01:27:10;;;;;;;1.70;1.20;;;1.00;90.60;0.00;99806.00;;;;5115907;28;20206;-77
2022/01/24 01:29:48;;;;;;;0.93;0.93;;;1.00;90.50;0.00;99824.00;;;;5116622;28;20520;-77
2022/01/24 01:32:20;;;;;;;1.53;1.17;;;1.00;91.20;0.00;99826.00;;;;5116850;28;20247;-75
2022/01/24 01:35:09;;;;;;;2.47;2.30;;;1.00;91.40;-0.10;99809.00;;;;5116344;28;20706;-75
2022/01/24 01:56:55;;;;;;;0.93;0.93;;;1.00;91.70;0.00;99808.00;;;;5097558;28;20237;-76
2022/01/24 01:59:22;;;;;;;1.20;1.20;;;0.90;92.70;-0.10;99820.00;;;;5116278;28;20198;-75
2022/01/24 02:01:48;;;;;;;1.83;1.73;;;0.90;91.50;0.00;99818.00;;;;5116383;28;20253;-76
2022/01/24 02:04:15;;;;;;;2.07;1.87;;;0.90;91.60;0.00;99817.00;;;;5116153;28;20625;-75
2022/01/24 02:06:43;;;;;;;0.90;0.90;;;0.90;91.40;-0.20;99810.00;;;;5116174;28;20232;-76
2022/01/24 02:09:11;;;;;;;1.33;1.27;;;0.80;91.00;-0.20;99824.00;;;;5116123;28;20232;-76
2022/01/24 02:11:38;;;;;;;1.13;1.13;;;0.80;91.10;-0.20;99818.00;;;;5116065;28;20278;-75
2022/01/24 02:14:08;;;;;;;1.37;1.37;;;0.80;91.30;-0.20;99821.00;;;;5116286;28;20225;-75
2022/01/24 02:16:45;;;;;;;1.13;1.10;;;0.70;91.10;-0.30;99788.00;;;;5116137;28;20233;-75
2022/01/24 02:19:30;;;;;;;1.27;1.20;;;0.70;91.00;-0.30;99810.00;;;;5098001;28;20713;-76
2022/01/24 02:24:43;;;;;;;1.63;1.53;;;0.70;91.10;-0.20;99804.00;;;;5064842;28;20246;-76
2022/01/24 02:27:11;;;;;;;1.10;1.10;;;0.80;91.20;-0.20;99795.00;;;;5098089;28;20285;-76
2022/01/24 02:29:52;;;;;;;1.57;1.50;;;0.70;90.70;-0.40;99795.00;;;;5115775;28;20189;-74
2022/01/24 02:32:18;;;;;;;2.17;1.90;;;0.70;90.50;-0.40;99805.00;;;;5115947;28;20213;-76
2022/01/24 02:34:48;;;;;;;1.10;1.10;;;0.60;90.80;-0.30;99796.00;;;;5115730;28;20290;-76
2022/01/24 02:37:20;;;;;;;2.37;1.70;;;0.70;91.30;-0.50;99793.00;;;;5115653;28;20305;-73
2022/01/24 02:39:53;;;;;;;1.53;1.43;;;0.60;90.60;-0.50;99793.00;;;;5115956;28;20659;-73
2022/01/24 02:53:35;;;;;;;3.73;2.27;;;0.60;91.60;-0.40;99788.00;;;;5089749;28;20198;-75
2022/01/24 02:56:05;;;;;;;2.10;1.47;;;0.60;91.70;-0.60;99794.00;;;;5115510;28;20198;-75
2022/01/24 02:58:35;;;;;;;1.47;1.43;;;0.50;91.40;-0.30;99788.00;;;;5115224;28;20233;-75
2022/01/24 03:01:06;;;;;;;1.10;1.10;;;0.60;91.90;-0.30;99793.00;;;;5115294;28;20206;-74
2022/01/24 03:03:34;;;;;;;1.70;1.60;;;0.60;91.60;-0.50;99795.00;;;;5115213;28;20205;-73
2022/01/24 03:06:00;;;;;;;2.53;1.63;;;0.60;91.50;-0.40;99787.00;;;;5114468;28;20517;-75
2022/01/24 03:08:27;;;;;;;0.97;0.97;;;0.50;91.50;-0.50;99779.00;;;;5115216;28;20277;-75
2022/01/24 03:10:54;;;;;;;1.20;1.20;;;0.50;91.60;-0.50;99781.00;;;;5115073;28;20688;-74
2022/01/24 03:13:32;;;;;;;1.60;1.33;;;0.50;91.70;-0.50;99781.00;;;;5115146;28;20227;-75
2022/01/24 03:16:04;;;;;;;1.83;1.73;;;0.50;92.40;-0.60;99777.00;;;;5115156;28;20213;-75
2022/01/24 03:18:31;;;;;;;1.67;1.57;;;0.40;91.50;-0.60;99783.00;;;;5115103;28;20243;-75
2022/01/24 03:21:01;;;;;;;1.00;1.00;;;0.40;91.50;-0.60;99731.00;;;;5114862;28;20225;-75
2022/01/24 03:23:27;;;;;;;1.80;1.70;;;0.40;91.40;-0.60;99771.00;;;;5097350;28;20204;-75
2022/01/24 03:25:55;;;;;;;1.33;1.03;;;0.40;91.30;-0.50;99772.00;;;;5114914;28;20638;-75
2022/01/24 03:28:22;;;;;;;2.27;2.07;;;0.40;91.10;-0.50;99761.00;;;;5114823;28;20194;-75
2022/01/24 03:30:49;;;;;;;1.87;1.77;;;0.40;91.10;-0.50;99759.00;;;;5115050;28;20248;-75
2022/01/24 03:33:16;;;;;;;1.30;1.30;;;0.40;90.90;-0.60;99762.00;;;;5114819;28;20667;-75
2022/01/24 03:35:43;;;;;;;1.40;1.40;;;0.40;90.70;-0.70;99764.00;;;;5114880;28;20250;-73
2022/01/24 03:38:11;;;;;;;1.27;1.27;;;0.40;90.70;-0.60;99770.00;;;;5114720;28;20536;-74
2022/01/24 03:40:38;;;;;;;0.70;0.70;;;0.40;91.00;-0.70;99763.00;;;;5114717;28;20525;-74
2022/01/24 03:43:05;;;;;;;1.47;1.37;;;0.40;91.20;-0.60;99768.00;;;;5114695;28;20586;-74
2022/01/24 03:45:42;;;;;;;0.80;0.80;;;0.30;91.30;-0.70;99772.00;;;;5114734;28;20193;-75
2022/01/24 03:48:26;;;;;;;1.13;1.13;;;0.40;91.30;-0.80;99752.00;;;;5114648;28;20209;-74
2022/01/24 03:50:53;;;;;;;1.10;1.10;;;0.30;91.60;-0.80;99754.00;;;;5114581;28;20728;-75
2022/01/24 03:53:20;;;;;;;1.57;1.50;;;0.20;91.80;-0.90;99761.00;;;;5114556;28;20255;-74
2022/01/24 03:55:47;;;;;;;1.83;1.73;;;0.20;91.90;-0.80;99756.00;;;;5114315;28;20253;-74
2022/01/24 03:58:16;;;;;;;1.57;1.47;;;0.20;92.40;-0.60;99758.00;;;;5113285;28;20194;-74
2022/01/24 04:00:43;;;;;;;1.33;1.23;;;0.30;93.50;-0.80;99757.00;;;;5114711;28;20623;-74
2022/01/24 04:03:10;;;;;;;1.10;1.10;;;0.20;92.40;-0.70;99756.00;;;;5114274;28;20235;-74
2022/01/24 04:05:37;;;;;;;1.03;1.03;;;0.20;92.20;-0.70;99752.00;;;;5114396;28;20221;-73
2022/01/24 04:08:04;;;;;;;2.00;1.90;;;0.20;92.30;-0.70;99752.00;;;;5114380;28;20636;-74
2022/01/24 04:10:40;;;;;;;1.00;1.00;;;0.30;92.20;-0.70;99761.00;;;;5114328;28;20202;-74
2022/01/24 04:13:19;;;;;;;2.07;1.50;;;0.30;92.10;-0.70;99756.00;;;;5114259;28;20198;-75
2022/01/24 04:15:58;;;;;;;1.93;1.83;;;0.30;92.00;-1.00;99763.00;;;;5114360;28;20228;-74
2022/01/24 04:18:34;;;;;;;1.63;1.53;;;0.20;91.50;-0.90;99760.00;;;;5114276;28;20190;-75
2022/01/24 04:21:22;;;;;;;1.67;1.57;;;0.20;92.00;-0.90;99757.00;;;;5114214;28;20194;-74
2022/01/24 04:23:55;;;;;;;1.73;1.63;;;0.10;92.30;-0.80;99757.00;;;;5114195;28;20217;-75
2022/01/24 04:26:24;;;;;;;1.20;1.17;;;0.20;92.40;-0.80;99751.00;;;;5114146;28;20645;-75
2022/01/24 04:28:53;;;;;;;1.47;1.37;;;0.20;92.00;-0.70;99753.00;;;;5114075;28;20221;-74
2022/01/24 04:31:22;;;;;;;3.80;1.93;;;0.20;91.80;-0.80;99711.00;;;;5114170;28;20515;-74
2022/01/24 04:33:49;;;;;;;2.03;1.60;;;0.20;91.30;-0.80;99762.00;;;;5096173;28;20255;-75
2022/01/24 04:36:18;;;;;;;1.43;1.40;;;0.20;91.10;-0.90;99766.00;;;;5113912;28;20198;-75
2022/01/24 04:38:45;;;;;;;2.73;2.03;;;0.10;91.00;-1.00;99751.00;;;;5114004;28;20202;-73
2022/01/24 04:41:18;;;;;;;1.63;1.53;;;0.00;91.00;-1.20;99746.00;;;;5113961;28;20618;-75
2022/01/24 04:44:03;;;;;;;1.63;1.53;;;-0.10;91.30;-1.10;99759.00;;;;5114284;28;20238;-76
2022/01/24 04:46:47;;;;;;;1.33;1.30;;;-0.10;91.60;-1.10;99746.00;;;;5115591;28;20198;-73
2022/01/24 04:52:21;;;;;;;1.10;1.10;;;0.10;91.60;-1.00;99757.00;;;;5113687;28;20304;-74
2022/01/24 04:54:51;;;;;;;1.90;1.80;;;0.00;91.40;-0.90;99758.00;;;;5113665;28;20190;-74
2022/01/24 04:57:22;;;;;;;2.83;2.07;;;0.00;91.40;-0.80;99761.00;;;;5113669;28;20241;-75
2022/01/24 04:59:50;;;;;;;1.87;1.77;;;0.10;91.30;-0.90;99768.00;;;;5113795;28;20209;-74
2022/01/24 05:02:22;;;;;;;1.83;1.73;;;0.10;91.00;-0.90;99764.00;;;;5113521;28;20241;-75
2022/01/24 05:04:49;;;;;;;2.77;1.50;;;0.00;91.00;-1.00;99766.00;;;;5113934;28;20280;-74
2022/01/24 05:07:16;;;;;;;0.97;0.97;;;0.00;90.90;-1.10;99772.00;;;;5114052;28;20234;-74
2022/01/24 05:09:48;;;;;;;2.47;2.27;;;0.00;91.00;-1.10;99783.00;;;;5117020;28;20249;-75
2022/01/24 05:12:21;;;;;;;1.00;1.00;;;0.00;91.10;-1.10;99770.00;;;;5119125;28;20193;-74
2022/01/24 05:25:46;;;;;;;1.33;1.07;;;-0.10;91.10;-1.00;99777.00;;;;5116642;28;20256;-75
2022/01/24 05:28:13;;;;;;;2.17;1.97;;;-0.10;91.70;-1.00;99770.00;;;;5116711;28;20212;-75
2022/01/24 05:30:40;;;;;;;1.00;1.00;;;0.00;91.40;-1.10;99769.00;;;;5116661;28;20233;-75
2022/01/24 05:33:07;;;;;;;1.57;1.50;;;-0.10;91.10;-1.10;99771.00;;;;5116647;28;20182;-74
2022/01/24 05:35:34;;;;;;;1.80;1.70;;;-0.10;92.00;-1.10;99778.00;;;;5116596;28;20237;-75
2022/01/24 05:38:01;;;;;;;1.53;1.47;;;-0.10;91.00;-1.10;99784.00;;;;5116737;28;20297;-75
2022/01/24 05:40:28;;;;;;;1.57;1.47;;;-0.10;91.10;-1.10;99778.00;;;;5098929;28;20204;-75
2022/01/24 05:42:54;;;;;;;1.97;1.87;;;-0.20;90.80;-1.20;99770.00;;;;5098920;28;20265;-75
2022/01/24 05:45:21;;;;;;;1.93;1.80;;;-0.20;90.90;-1.30;99784.00;;;;5116810;28;20282;-75
2022/01/24 05:47:48;;;;;;;1.30;1.30;;;-0.30;91.00;-1.30;99783.00;;;;5116429;28;20265;-75
2022/01/24 05:50:15;;;;;;;2.23;2.03;;;-0.20;90.90;-1.20;99766.00;;;;5116560;28;20198;-75
2022/01/24 05:52:44;;;;;;;2.20;2.10;;;-0.20;91.10;-1.20;99780.00;;;;5116233;28;20653;-76
2022/01/24 05:55:11;;;;;;;1.67;1.57;;;-0.20;91.00;-1.20;99777.00;;;;5098534;28;20594;-75
2022/01/24 05:57:37;;;;;;;2.60;1.67;;;-0.20;90.80;-1.10;99777.00;;;;5116353;28;20282;-76
2022/01/24 06:00:08;;;;;;;2.17;1.97;;;-0.20;90.80;-1.10;99771.00;;;;5116345;28;20201;-76
2022/01/24 06:02:34;;;;;;;1.93;1.83;;;-0.20;90.60;-1.30;99777.00;;;;5116779;28;20562;-76
2022/01/24 06:05:01;;;;;;;1.53;1.50;;;-0.30;90.30;-1.30;99776.00;;;;5116223;28;20221;-76
2022/01/24 06:07:28;;;;;;;1.53;1.47;;;-0.30;90.60;-1.30;99772.00;;;;5116539;28;20617;-75
2022/01/24 06:09:55;;;;;;;1.63;1.53;;;-0.30;90.60;-1.30;99778.00;;;;5116561;28;20234;-75
2022/01/24 06:12:22;;;;;;;1.20;1.20;;;-0.30;90.60;-1.40;99781.00;;;;5116251;28;20325;-75
2022/01/24 06:14:49;;;;;;;1.80;1.67;;;-0.30;90.80;-1.40;99786.00;;;;5098268;28;20233;-73
2022/01/24 06:17:18;;;;;;;1.43;1.43;;;-0.40;90.80;-1.40;99783.00;;;;5116162;28;20563;-75
2022/01/24 06:19:45;;;;;;;2.90;1.60;;;-0.40;91.10;-1.40;99791.00;;;;5115117;28;20198;-75
2022/01/24 06:22:13;;;;;;;2.53;2.33;;;-0.40;91.20;-1.30;99794.00;;;;5115678;28;20312;-75
2022/01/24 06:24:41;;;;;;;2.03;1.83;;;-0.40;91.50;-1.50;99781.00;;;;5115915;28;20204;-75
2022/01/24 06:27:07;;;;;;;4.83;2.80;;;-0.40;91.20;-1.40;99788.00;;;;5097879;28;20225;-75
2022/01/24 06:29:34;;;;;;;2.40;2.20;;;-0.40;91.10;-1.40;99788.00;;;;5115894;28;20248;-75
2022/01/24 06:32:00;;;;;;;2.47;2.30;;;-0.40;91.20;-1.50;99785.00;;;;5115969;28;20307;-75
2022/01/24 06:34:27;;;;;;;2.40;1.80;;;-0.50;91.20;-1.40;99781.00;;;;5115759;28;20653;-75
2022/01/24 06:36:53;;;;;;;1.87;1.77;;;-0.40;91.50;-1.40;99788.00;;;;5115591;28;20197;-75
2022/01/24 06:39:20;;;;;;;1.90;1.73;;;-0.40;91.50;-1.60;99785.00;;;;5115769;28;20205;-75
2022/01/24 06:41:52;;;;;;;1.70;1.60;;;-0.50;91.00;-1.40;99788.00;;;;5115561;28;20213;-75
2022/01/24 06:44:18;;;;;;;1.33;1.33;;;-0.50;91.60;-1.50;99791.00;;;;5115486;28;20527;-75
2022/01/24 06:46:45;;;;;;;1.90;1.77;;;-0.50;91.40;-1.60;99787.00;;;;5097808;28;20197;-75
2022/01/24 06:49:11;;;;;;;2.57;2.37;;;-0.50;91.50;-1.70;99793.00;;;;5115480;28;20669;-75
2022/01/24 06:51:38;;;;;;;1.93;1.83;;;-0.60;91.70;-1.50;99801.00;;;;5115603;28;20202;-75
2022/01/24 06:54:06;;;;;;;2.80;1.97;;;-0.50;92.10;-1.60;99795.00;;;;5097326;28;20230;-75
2022/01/24 06:56:35;;;;;;;4.47;2.20;;;-0.50;91.70;-1.40;99795.00;;;;5097838;28;20549;-75
2022/01/24 06:59:03;;;;;;;1.57;1.23;;;-0.50;91.80;-1.60;99796.00;;;;5115449;28;20254;-75
2022/01/24 07:01:29;;;;;;;3.80;1.57;;;-0.50;91.50;-1.60;99799.00;;;;5115241;28;20226;-75
2022/01/24 07:03:57;;;;;;;1.70;1.60;;;-0.50;91.60;-1.50;99801.00;;;;5115305;28;20200;-75
2022/01/24 07:06:23;;;;;;;2.03;1.93;;;-0.50;92.80;-1.40;99813.00;;;;5114946;28;20254;-75
2022/01/24 07:08:52;;;;;;;2.57;2.17;;;-0.30;92.40;-1.30;99807.00;;;;5115115;28;20198;-75
2022/01/24 07:11:18;;;;;;;2.57;1.50;;;-0.40;92.20;-1.40;99812.00;;;;5114967;28;20225;-75
2022/01/24 07:13:45;;;;;;;2.03;1.93;;;-0.40;92.20;-1.40;99827.00;;;;5114958;28;20219;-76
2022/01/24 07:16:13;;;;;;;2.40;2.23;;;-0.30;92.30;-1.30;99826.00;;;;5097271;28;20517;-75
2022/01/24 07:18:58;;;;;;;6.27;3.00;;;-0.30;92.40;-1.30;99822.00;;;;5115099;28;20617;-75
2022/01/24 07:21:25;;;;;;;3.77;2.53;;;-0.30;93.00;-1.20;99828.00;;;;5114769;28;20212;-75
2022/01/24 07:23:52;;;;;;;5.53;3.77;;;-0.30;92.50;-1.20;99843.00;;;;5114907;28;20649;-75
2022/01/24 07:26:18;;;;;;;2.67;2.37;;;-0.20;92.60;-1.10;99831.00;;;;5114998;28;20266;-75
2022/01/24 07:28:45;;;;;;;2.47;2.30;;;-0.20;92.40;-1.10;99835.00;;;;5114821;28;20304;-76
2022/01/24 07:31:12;;;;;;;3.43;3.13;;;-0.10;92.20;-1.10;99822.00;;;;5114552;28;20244;-75
2022/01/24 07:33:40;;;;;;;2.47;2.27;;;-0.10;92.10;-0.90;99842.00;;;;5114791;28;20256;-75
2022/01/24 07:36:06;;;;;;;2.50;2.30;;;0.00;92.50;-0.90;99833.00;;;;5114749;28;20628;-76
2022/01/24 07:38:33;;;;;;;2.10;2.00;;;0.10;92.40;-0.70;99836.00;;;;5114463;28;20259;-75
2022/01/24 07:41:01;;;;;;;3.50;2.33;;;0.20;92.50;-0.80;99837.00;;;;5114586;28;20247;-77
2022/01/24 07:43:27;;;;;;;2.33;2.23;;;0.20;91.80;-0.80;99838.00;;;;5096722;28;20327;-77
2022/01/24 07:45:54;;;;;;;1.37;1.37;;;0.20;92.10;-0.60;99837.00;;;;5114725;28;20280;-76
2022/01/24 07:48:22;;;;;;;5.73;4.03;;;0.30;92.50;-0.50;99838.00;;;;5114619;28;20205;-77
2022/01/24 07:50:51;;;;;;;2.57;2.37;;;0.40;92.10;-0.60;99850.00;;;;5114825;28;20239;-77
2022/01/24 07:53:18;;;;;;;2.77;2.30;;;0.40;91.30;-0.50;99858.00;;;;5114523;28;20190;-78
2022/01/24 07:55:45;;;;;;;3.57;1.83;;;0.40;91.70;-0.50;99849.00;;;;5114354;28;20253;-77
2022/01/24 07:58:13;;;;;;;1.70;1.60;;;0.50;91.70;-0.40;99872.00;;;;5096894;28;20240;-78
2022/01/24 08:00:40;;;;;;;3.50;2.50;;;0.50;91.60;-0.30;99865.00;;;;5114583;28;20190;-80
2022/01/24 08:03:07;;;;;;;2.23;2.13;;;0.50;91.50;-0.20;99865.00;;;;5114386;28;20274;-81
2022/01/24 08:05:38;;;;;;;1.73;1.63;;;0.70;91.30;-0.10;99870.00;;;;5114520;28;20649;-82
2022/01/24 08:08:05;;;;;;;3.20;2.67;;;0.80;91.00;0.00;99882.00;;;;5114663;28;20256;-81
2022/01/24 08:10:32;;;;;;;3.27;2.30;;;0.90;91.10;-0.20;99873.00;;;;5114472;28;20277;-82
2022/01/24 08:13:01;;;;;;;3.77;2.73;;;0.80;90.30;-0.20;99856.00;;;;5096519;28;20202;-79
2022/01/24 08:15:28;;;;;;;5.20;2.63;;;0.80;90.20;-0.10;99876.00;;;;5096570;28;20258;-77
2022/01/24 08:17:57;;;;;;;1.90;1.80;;;0.80;90.20;0.00;99873.00;;;;5114483;28;20202;-72
2022/01/24 08:20:24;;;;;;;2.20;2.10;;;0.80;90.50;0.00;99870.00;;;;5114214;28;20548;-73
2022/01/24 08:22:52;;;;;;;2.17;2.07;;;0.90;90.30;0.00;99868.00;;;;5114100;28;20282;-72
2022/01/24 08:25:19;;;;;;;3.20;2.90;;;1.00;90.40;0.10;99872.00;;;;5114149;28;20281;-73
2022/01/24 08:27:47;;;;;;;3.53;2.70;;;1.00;90.90;0.20;99873.00;;;;5113258;28;20598;-71
2022/01/24 08:30:20;;;;;;;1.87;1.40;;;1.10;90.90;0.30;99859.00;;;;5114164;28;20205;-72
2022/01/24 08:32:47;;;;;;;2.17;1.90;;;1.20;89.80;0.20;99851.00;;;;5113996;28;20242;-73
2022/01/24 08:35:19;;;;;;;2.00;1.90;;;1.20;90.00;0.30;99856.00;;;;5113967;28;20202;-72
2022/01/24 08:37:49;;;;;;;2.57;2.37;;;1.20;90.10;0.40;99819.00;;;;5114086;28;20212;-71
2022/01/24 08:40:22;;;;;;;1.43;1.33;;;1.30;90.40;0.50;99848.00;;;;5114032;28;20217;-72
2022/01/24 08:42:57;;;;;;;8.53;2.83;;;1.40;90.20;0.60;99848.00;;;;5113910;28;20552;-72
2022/01/24 08:45:50;;;;;;;3.63;3.33;;;1.50;90.20;0.70;99817.00;;;;5117447;28;20232;-73
2022/01/24 08:48:22;;;;;;;1.77;1.67;;;1.60;89.90;0.80;99857.00;;;;5117438;28;20194;-73
2022/01/24 08:50:51;;;;;;;1.53;1.43;;;1.70;89.80;0.80;99849.00;;;;5117288;28;20198;-72
2022/01/24 08:53:18;;;;;;;3.03;2.83;;;1.70;89.20;0.80;99853.00;;;;5117286;28;20255;-72
2022/01/24 08:55:46;;;;;;;2.80;2.50;;;1.70;89.40;0.90;99860.00;;;;5117457;28;20239;-72
2022/01/24 08:58:15;;;;;;;2.20;2.10;;;1.80;89.10;1.00;99861.00;;;;5117365;28;20250;-74
2022/01/24 09:00:45;;;;;;;4.30;3.43;;;1.90;89.60;1.00;99855.00;;;;5117200;28;20195;-74
2022/01/24 09:03:13;;;;;;;1.83;1.73;;;1.90;89.30;1.20;99858.00;;;;5099188;28;20503;-74
2022/01/24 09:05:41;;;;;;;1.67;1.57;;;2.00;89.70;1.30;99858.00;;;;5098951;28;20234;-73
2022/01/24 09:08:09;;;;;;;2.07;1.97;;;2.10;89.60;1.20;99856.00;;;;5117183;28;20240;-73
2022/01/24 09:10:39;;;;;;;1.87;1.77;;;2.10;89.90;1.30;99853.00;;;;5116936;28;20219;-75
2022/01/24 09:13:09;;;;;;;4.20;3.23;;;2.20;89.90;1.40;99856.00;;;;5116921;28;20694;-73
2022/01/24 09:15:36;;;;;;;3.77;2.80;;;2.30;90.10;1.50;99866.00;;;;5116970;28;20208;-74
2022/01/24 09:18:05;;;;;;;5.23;2.87;;;2.30;90.10;1.60;99862.00;;;;5116885;28;20203;-74
2022/01/24 09:20:32;;;;;;;1.13;1.13;;;2.50;90.20;1.70;99861.00;;;;5117087;28;20200;-74
2022/01/24 09:23:01;;;;;;;5.13;2.57;;;2.50;90.50;1.90;99869.00;;;;5116767;28;20528;-74
2022/01/24 09:25:27;;;;;;;1.37;1.27;;;2.70;90.90;2.10;99853.00;;;;5116947;28;20286;-74
2022/01/24 09:27:54;;;;;;;2.77;2.57;;;2.90;91.30;2.20;99870.00;;;;5116877;28;20197;-72
2022/01/24 09:30:23;;;;;;;1.30;1.30;;;3.00;90.80;2.40;99863.00;;;;5116601;28;20617;-73
2022/01/24 09:32:50;;;;;;;1.67;1.57;;;3.10;91.00;2.60;99863.00;;;;5115705;28;20582;-74
2022/01/24 09:35:20;;;;;;;1.10;1.10;;;3.30;90.90;2.80;99853.00;;;;5098804;28;20265;-74
2022/01/24 09:37:50;;;;;;;1.97;1.87;;;3.50;90.40;2.90;99860.00;;;;5116884;28;20200;-74
2022/01/24 09:40:19;;;;;;;1.10;1.10;;;3.70;90.10;3.10;99853.00;;;;5116603;28;20278;-73
2022/01/24 09:42:47;;;;;;;1.03;1.03;;;3.80;89.50;3.10;99859.00;;;;5116326;28;20326;-72
2022/01/24 09:45:16;;;;;;;1.87;1.43;;;3.90;89.30;3.10;99859.00;;;;5098832;28;20216;-72
2022/01/24 09:47:44;;;;;;;1.80;1.27;;;3.90;88.50;3.10;99855.00;;;;5116705;28;20276;-72
2022/01/24 09:50:16;;;;;;;1.00;1.00;;;4.00;88.40;3.20;99860.00;;;;5116440;28;20286;-73
2022/01/24 09:52:44;;;;;;;1.03;1.03;;;4.00;89.10;3.20;99866.00;;;;5116726;28;20190;-72
2022/01/24 09:55:12;;;;;;;3.67;2.17;;;4.00;88.00;3.20;99874.00;;;;5116244;28;20309;-75
2022/01/24 09:57:38;;;;;;;2.20;2.07;;;4.00;87.70;3.20;99866.00;;;;5116459;28;20204;-75
2022/01/24 10:00:09;;;;;;;1.53;1.43;;;4.00;88.00;3.20;99867.00;;;;5116316;28;20256;-74
2022/01/24 10:02:36;;;;;;;0.97;0.97;;;4.10;88.00;3.30;99875.00;;;;5116139;28;20244;-72
2022/01/24 10:05:16;;;;;;;2.57;2.37;;;4.10;88.10;3.30;99866.00;;;;5116312;28;20633;-74
2022/01/24 10:07:52;;;;;;;1.23;1.23;;;4.10;88.00;3.40;99871.00;;;;5116231;28;20300;-75
2022/01/24 10:10:34;;;;;;;0.90;0.90;;;4.20;87.60;3.50;99858.00;;;;5116384;28;20268;-74
2022/01/24 10:16:26;;;;;;;2.20;2.00;;;4.40;87.40;3.60;99868.00;;;;5116182;28;20213;-73
2022/01/24 10:19:07;;;;;;;1.40;1.20;;;4.40;87.20;3.70;99868.00;;;;5116026;28;20217;-75
2022/01/24 10:21:41;;;;;;;1.20;1.20;;;4.50;87.00;3.70;99864.00;;;;5116297;28;20207;-74
2022/01/24 10:24:12;;;;;;;2.37;2.27;;;4.60;86.10;4.00;99864.00;;;;5116157;28;20209;-72
2022/01/24 10:26:39;;;;;;;1.97;1.87;;;4.70;85.60;3.90;99861.00;;;;5098491;28;20501;-74
2022/01/24 10:29:12;;;;;;;0.80;0.80;;;4.80;85.20;4.10;99855.00;;;;5116030;28;20200;-72
2022/01/24 10:31:48;;;;;;;4.40;1.87;;;4.80;84.70;4.20;99852.00;;;;5116070;28;20202;-72
2022/01/24 10:34:22;;;;;;;1.50;1.40;;;4.90;84.70;4.30;99846.00;;;;5116146;28;20269;-73
2022/01/24 10:36:51;;;;;;;1.00;1.00;;;5.00;83.50;4.30;99848.00;;;;5116388;28;20264;-73
2022/01/24 10:39:30;;;;;;;1.60;1.17;;;5.10;82.10;4.40;99840.00;;;;5098652;28;20222;-73
2022/01/24 10:42:52;;;;;;;0.90;0.90;;;5.20;82.00;4.40;99847.00;;;;5116364;28;20233;-75
2022/01/24 10:45:22;;;;;;;1.40;1.33;;;5.30;81.70;4.60;99839.00;;;;5116487;28;20213;-74
2022/01/24 10:47:53;;;;;;;1.37;1.27;;;5.40;80.50;4.70;99827.00;;;;5125111;28;21166;-73
2022/01/24 10:50:24;;;;;;;0.70;0.70;;;5.50;80.20;4.90;99827.00;;;;5127650;28;20189;-73
2022/01/24 10:52:55;;;;;;;2.07;1.77;;;5.60;78.60;4.90;99820.00;;;;5126690;28;20198;-73
2022/01/24 10:55:25;;;;;;;1.00;1.00;;;5.70;78.30;5.00;99824.00;;;;5127523;28;20205;-71
2022/01/24 10:57:58;;;;;;;1.00;1.00;;;5.70;78.80;5.00;99829.00;;;;5127459;28;20190;-73
2022/01/24 11:00:28;;;;;;;1.30;1.30;;;5.80;78.60;5.00;99827.00;;;;5125500;28;20238;-73
2022/01/24 11:02:59;;;;;;;1.23;1.23;;;5.80;78.30;5.20;99822.00;;;;5115857;28;20322;-74
2022/01/24 11:05:33;;;;;;;1.03;1.03;;;5.90;76.70;5.20;99808.00;;;;5115664;28;20241;-74
2022/01/24 11:08:03;;;;;;;0.77;0.77;;;5.90;75.50;5.30;99799.00;;;;5115134;28;20196;-73
2022/01/24 11:10:34;;;;;;;1.43;1.33;;;6.10;75.80;5.40;99809.00;;;;5115704;28;20228;-73
2022/01/24 11:13:03;;;;;;;1.23;1.23;;;6.10;76.50;5.50;99807.00;;;;5116224;28;20243;-71
2022/01/24 11:15:30;;;;;;;0.97;0.97;;;6.20;75.90;5.60;99819.00;;;;5116121;28;20209;-73
2022/01/24 11:17:58;;;;;;;1.43;1.33;;;6.30;75.20;5.80;99806.00;;;;5116551;28;20299;-72
2022/01/24 11:20:30;;;;;;;0.87;0.87;;;6.50;75.00;5.90;99801.00;;;;5115132;28;20231;-74
2022/01/24 11:23:00;;;;;;;3.90;1.37;;;6.60;74.60;5.90;99805.00;;;;5117400;28;20228;-74
2022/01/24 11:25:32;;;;;;;2.80;1.97;;;6.70;72.30;6.00;99805.00;;;;5125529;28;20190;-73
2022/01/24 11:27:59;;;;;;;1.37;1.37;;;6.70;71.20;6.20;99807.00;;;;5130623;28;20314;-73
2022/01/24 11:30:34;;;;;;;0.60;0.60;;;6.80;71.00;6.30;99806.00;;;;5123469;28;20284;-75
2022/01/24 11:33:10;;;;;;;1.27;1.17;;;7.00;70.70;6.50;99804.00;;;;5125651;28;20195;-76
2022/01/24 11:35:39;;;;;;;2.07;1.97;;;7.10;69.70;6.50;99812.00;;;;5127629;28;20754;-74
2022/01/24 11:38:26;;;;;;;1.00;1.00;;;7.20;67.10;6.60;99809.00;;;;5122996;28;20213;-75
2022/01/24 11:41:00;;;;;;;1.17;1.17;;;7.30;64.90;6.60;99807.00;;;;5117706;28;20226;-77
2022/01/24 11:43:29;;;;;;;1.47;1.43;;;7.40;64.80;6.80;99795.00;;;;5117298;28;20232;-78
2022/01/24 11:46:06;;;;;;;1.90;1.10;;;7.50;65.10;7.00;99798.00;;;;5120032;28;20228;-79
2022/01/24 11:48:35;;;;;;;0.60;0.60;;;7.70;64.10;7.20;99798.00;;;;5117061;28;20584;-79
2022/01/24 11:51:06;;;;;;;1.03;1.03;;;7.80;63.40;7.40;99795.00;;;;5115319;28;20212;-75
2022/01/24 11:53:38;;;;;;;0.70;0.70;;;7.90;61.70;7.50;99794.00;;;;5114804;28;20199;-76
2022/01/24 11:56:26;;;;;;;0.97;0.97;;;8.10;59.70;7.60;99789.00;;;;5114679;28;20204;-73
2022/01/24 11:59:22;;;;;;;0.87;0.87;;;8.20;59.30;7.80;99782.00;;;;5114666;28;20195;-74
2022/01/24 12:02:06;;;;;;;1.23;1.13;;;8.30;58.00;8.10;99788.00;;;;5114569;28;20624;-73
2022/01/24 12:04:53;;;;;;;0.90;0.90;;;8.50;57.60;8.30;99768.00;;;;5114689;28;20241;-74
2022/01/24 12:07:23;;;;;;;1.30;1.20;;;8.80;57.30;8.60;99769.00;;;;5114419;28;20197;-73
2022/01/24 12:09:52;;;;;;;0.80;0.80;;;9.10;55.30;8.90;99770.00;;;;5114405;28;20211;-74
2022/01/24 12:12:47;;;;;;;0.80;0.80;;;9.30;54.20;9.20;99768.00;;;;5114377;28;20251;-74
2022/01/24 12:15:51;;;;;;;0.70;0.70;;;9.60;53.10;9.50;99770.00;;;;5114272;28;20194;-73
2022/01/24 12:18:42;;;;;;;1.63;1.53;;;9.80;52.40;9.80;99760.00;;;;5115041;28;20720;-74
2022/01/24 12:21:11;;;;;;;0.60;0.60;;;10.10;51.50;10.30;99764.00;;;;5117969;28;20202;-75
2022/01/24 12:23:40;;;;;;;0.83;0.83;;;10.50;50.80;10.50;99754.00;;;;5117870;28;20224;-74
2022/01/24 12:26:10;;;;;;;1.03;1.03;;;10.80;47.70;10.80;99754.00;;;;5117804;28;20534;-73
2022/01/24 12:28:50;;;;;;;1.43;1.37;;;11.00;46.30;10.80;99749.00;;;;5117827;28;20669;-74
2022/01/24 12:31:23;;;;;;;1.23;0.90;;;11.20;45.10;11.20;99752.00;;;;5117678;28;20202;-72
2022/01/24 12:34:08;;;;;;;1.00;1.00;;;11.50;45.80;11.60;99744.00;;;;5117823;28;20197;-72
2022/01/24 12:37:08;;;;;;;0.80;0.80;;;11.80;44.40;12.10;99742.00;;;;5117828;28;20241;-77